CBR weather

Canberra International Airport
Canberra, Australian Capital Territory, Australia

Public forecast

Using degrees Celsius for public forecast. Weather courtesy of forecast.io.

METAR (pilot weather report)

Retrieved 2018/07/18 10:30 UTC (0 seconds ago):

YSCB 181030Z 36006KT CAVOK 05/M01 Q1019 1830Z

TAF (pilot weather forecast)

Retrieved 2018/07/18 06:00 UTC (4 hours ago):

TAF YSCB 180523Z 1806/1906 33016KT 9999 FEW040 FM180800 30008KT CAVOK FM181600 30005KT 9999 FEW015 FM190000 32015KT CAVOK